Landrum, South Carolina
Current Conditions -  °F | °C
As of 4:53 PM on Monday 20 Oct 2014 (Local Time) from KGSP Reporting Station
Clear Clear  
Wind Chill: 69°   Ceiling: Unl
Heat Index: 69°   Visibility: 10mi
Dew Point: 49°   Wind: 14mph
Humidity: 49%   Direction: 210°SSW
Pressure: 29.98"   Gusts: NA
Location:  35.18°N, 82.19°W
Report Text: KGSP 202053Z 21012KT 10SM CLR 21/09 A2998 RMK AO2 SLP148 T02060094 56016
Loading
Personal Weather Stations






























Interactive Weather Map
Tropical Storm Tracking
New forecast layout! Learn more

10-Day Weather Forecast

Advertisements
Track Severe Weather on mobile